Time;durP1;ratioP1;P1;durP2;ratioP2;P2;SDS_P1;SDS_P2;PMS_P1;PMS_P2;Temp;Humidity;BMP_temperature;BMP_pressure;BME280_temperature;BME280_humidity;BME280_pressure;Samples;Min_cycle;Max_cycle;Signal;HPM_P1;HPM_P2
2021/07/06 00:08:04;;;;;;;4.80;2.20;;;17.40;99.90;;;;;;20495379;28;20113;-49
2021/07/06 00:18:05;;;;;;;6.53;2.50;;;17.60;99.90;;;;;;20489072;28;20042;-49
2021/07/06 00:28:07;;;;;;;6.32;2.72;;;17.50;99.90;;;;;;20494646;28;20043;-49
2021/07/06 00:38:09;;;;;;;4.18;2.03;;;17.70;99.90;;;;;;20485710;28;20045;-49
2021/07/06 00:48:10;;;;;;;2.63;1.17;;;17.80;99.90;;;;;;20485291;28;20045;-49
2021/07/06 00:58:14;;;;;;;5.55;1.83;;;17.80;99.90;;;;;;20505922;28;20126;-49
2021/07/06 01:08:16;;;;;;;4.43;1.98;;;17.60;99.90;;;;;;20494172;28;20039;-48
2021/07/06 01:18:18;;;;;;;5.60;1.45;;;17.90;99.90;;;;;;20484891;28;20137;-49
2021/07/06 01:28:20;;;;;;;3.78;1.45;;;17.80;99.90;;;;;;20506596;28;20046;-48
2021/07/06 01:38:21;;;;;;;2.88;1.00;;;17.90;99.90;;;;;;20481965;28;20051;-48
2021/07/06 01:48:22;;;;;;;2.13;0.77;;;17.90;99.90;;;;;;20481451;28;20099;-48
2021/07/06 01:58:26;;;;;;;1.77;0.82;;;17.90;99.90;;;;;;20499126;28;20051;-49
2021/07/06 02:08:27;;;;;;;2.13;0.65;;;17.90;99.90;;;;;;20485935;28;20062;-48
2021/07/06 02:18:32;;;;;;;1.10;0.50;;;17.90;99.90;;;;;;20484610;28;20051;-49
2021/07/06 02:28:34;;;;;;;2.28;0.57;;;17.90;99.90;;;;;;20480763;28;20639;-49
2021/07/06 02:38:38;;;;;;;1.75;0.73;;;17.90;99.90;;;;;;20484342;28;20077;-49
2021/07/06 02:48:39;;;;;;;1.23;0.68;;;17.90;99.90;;;;;;20474703;28;20066;-49
2021/07/06 02:58:40;;;;;;;1.50;0.47;;;17.90;99.90;;;;;;20490776;28;20065;-48
2021/07/06 03:08:41;;;;;;;1.92;0.80;;;17.90;99.90;;;;;;20481933;28;20059;-49
2021/07/06 03:18:43;;;;;;;1.58;0.55;;;17.90;99.90;;;;;;20474538;28;20039;-49
2021/07/06 03:28:44;;;;;;;1.80;0.40;;;18.00;99.90;;;;;;20491233;28;20039;-49
2021/07/06 03:38:45;;;;;;;1.48;0.60;;;18.00;99.90;;;;;;20473835;28;20681;-48
2021/07/06 03:48:47;;;;;;;0.88;0.50;;;18.10;99.90;;;;;;20476280;28;20039;-48
2021/07/06 03:58:48;;;;;;;1.67;0.60;;;18.00;99.90;;;;;;20483339;28;20429;-48
2021/07/06 04:08:49;;;;;;;2.80;0.38;;;18.10;99.90;;;;;;20484723;28;20031;-48
2021/07/06 04:18:50;;;;;;;1.10;0.70;;;18.20;99.90;;;;;;20496176;28;20130;-48
2021/07/06 04:28:51;;;;;;;1.77;1.08;;;18.30;99.90;;;;;;20504268;28;20129;-48
2021/07/06 04:38:53;;;;;;;1.13;0.55;;;18.40;99.90;;;;;;20491052;28;20181;-48
2021/07/06 04:48:54;;;;;;;0.65;0.25;;;18.30;99.90;;;;;;20490946;28;20031;-48
2021/07/06 04:58:56;;;;;;;1.13;0.50;;;18.30;99.90;;;;;;20478108;28;20050;-48
2021/07/06 05:08:57;;;;;;;1.10;0.45;;;18.30;99.90;;;;;;20491475;28;20047;-48
2021/07/06 05:18:58;;;;;;;3.03;0.60;;;18.50;99.90;;;;;;20481899;28;20047;-48
2021/07/06 05:29:00;;;;;;;1.20;0.30;;;18.60;99.90;;;;;;20494152;28;20122;-48
2021/07/06 05:39:01;;;;;;;1.15;0.50;;;18.60;99.90;;;;;;20482330;28;20186;-48
2021/07/06 05:49:02;;;;;;;1.15;0.40;;;18.70;99.90;;;;;;20486720;28;20042;-49
2021/07/06 05:59:04;;;;;;;1.05;0.45;;;18.80;99.90;;;;;;20500013;28;20108;-48
2021/07/06 06:09:05;;;;;;;1.10;0.57;;;18.80;99.90;;;;;;20473934;28;20038;-48
2021/07/06 06:19:06;;;;;;;0.88;0.52;;;18.80;99.90;;;;;;20501648;28;20498;-48
2021/07/06 06:29:07;;;;;;;1.67;0.55;;;18.90;99.90;;;;;;20495742;28;20557;-49
2021/07/06 06:39:08;;;;;;;1.77;1.15;;;18.90;99.90;;;;;;20537162;28;20054;-49
2021/07/06 06:49:10;;;;;;;5.18;0.82;;;19.00;99.90;;;;;;20538037;28;20141;-49
2021/07/06 06:59:12;;;;;;;0.82;0.35;;;19.20;99.90;;;;;;20487537;28;20131;-49
2021/07/06 07:09:15;;;;;;;1.15;0.38;;;19.40;99.90;;;;;;20498641;28;20054;-49
2021/07/06 07:19:16;;;;;;;0.73;0.35;;;19.30;99.90;;;;;;20510851;28;20502;-49
2021/07/06 07:29:18;;;;;;;1.38;0.50;;;19.20;99.90;;;;;;20481868;28;20059;-49
2021/07/06 07:39:19;;;;;;;0.52;0.28;;;19.30;99.90;;;;;;20515466;28;20042;-49
2021/07/06 07:49:20;;;;;;;1.63;0.60;;;19.60;99.90;;;;;;20502363;28;20038;-50
2021/07/06 07:59:21;;;;;;;2.42;0.70;;;19.50;99.90;;;;;;20491217;28;20533;-50
2021/07/06 08:09:23;;;;;;;1.27;0.43;;;19.80;99.90;;;;;;20490033;28;20049;-49
2021/07/06 08:19:25;;;;;;;1.63;0.90;;;20.10;99.90;;;;;;20489425;28;20513;-49
2021/07/06 08:29:27;;;;;;;1.23;0.35;;;20.70;99.90;;;;;;20483155;28;20093;-49
2021/07/06 08:39:30;;;;;;;0.90;0.55;;;20.30;99.90;;;;;;20502271;28;20415;-49
2021/07/06 08:49:33;;;;;;;1.42;0.40;;;20.20;99.90;;;;;;20482822;28;20109;-49
2021/07/06 08:59:40;;;;;;;1.75;0.40;;;20.10;99.90;;;;;;20486694;28;20049;-48
2021/07/06 09:09:41;;;;;;;0.75;0.30;;;20.30;99.90;;;;;;20484753;28;20051;-49
2021/07/06 09:19:45;;;;;;;1.17;0.20;;;21.00;99.90;;;;;;20479293;28;20035;-49
2021/07/06 09:30:08;;;;;;;0.68;0.20;;;21.00;99.90;;;;;;20479251;28;20035;-49
2021/07/06 09:40:36;;;;;;;3.05;0.50;;;20.80;99.90;;;;;;20480500;28;20506;-49
2021/07/06 09:50:37;;;;;;;1.20;0.43;;;21.30;99.90;;;;;;20480018;28;20233;-49
2021/07/06 10:00:39;;;;;;;1.52;0.30;;;20.80;99.90;;;;;;20480081;28;20051;-49
2021/07/06 10:10:40;;;;;;;1.55;0.30;;;20.30;99.90;;;;;;20476931;28;20085;-49
2021/07/06 10:20:41;;;;;;;0.68;0.28;;;20.30;99.90;;;;;;20521220;28;20121;-49
2021/07/06 10:30:45;;;;;;;0.47;0.13;;;20.30;99.90;;;;;;20486727;28;20035;-49
2021/07/06 10:40:46;;;;;;;1.48;0.20;;;20.60;99.90;;;;;;20516124;28;20039;-48
2021/07/06 10:50:48;;;;;;;0.82;0.22;;;20.40;99.90;;;;;;20502403;28;20495;-48
2021/07/06 11:00:49;;;;;;;1.10;0.60;;;20.80;99.90;;;;;;20486759;28;20051;-48
2021/07/06 11:10:50;;;;;;;3.28;0.82;;;20.90;99.90;;;;;;20486300;28;20134;-48
2021/07/06 11:20:51;;;;;;;2.65;0.60;;;21.00;99.90;;;;;;20511345;28;20043;-48
2021/07/06 11:31:01;;;;;;;2.15;0.30;;;20.70;99.90;;;;;;20498317;28;20062;-49
2021/07/06 11:41:04;;;;;;;2.10;0.30;;;20.60;99.90;;;;;;20488597;28;20043;-48
2021/07/06 11:51:08;;;;;;;4.53;0.22;;;20.80;99.90;;;;;;20491458;28;20046;-47
2021/07/06 12:01:12;;;;;;;1.33;0.20;;;20.60;99.90;;;;;;20483496;28;20530;-48
2021/07/06 12:11:15;;;;;;;1.23;0.47;;;20.30;99.90;;;;;;20490891;28;20038;-48
2021/07/06 12:21:34;;;;;;;3.50;0.52;;;19.80;99.90;;;;;;20492643;28;20558;-48
2021/07/06 12:31:37;;;;;;;3.60;0.50;;;19.80;99.90;;;;;;20484433;28;20054;-49
2021/07/06 12:41:44;;;;;;;6.63;0.85;;;19.80;99.90;;;;;;20486519;28;20120;-48
2021/07/06 12:51:59;;;;;;;4.75;0.43;;;19.90;99.90;;;;;;20484786;28;20406;-49
2021/07/06 13:02:18;;;;;;;0.88;0.30;;;20.50;99.90;;;;;;20425203;28;20502;-49
2021/07/06 13:12:26;;;;;;;10.25;1.33;;;20.20;99.90;;;;;;20480344;28;20053;-48
2021/07/06 13:22:27;;;;;;;6.28;0.47;;;20.20;99.90;;;;;;20481907;28;20051;-49
2021/07/06 13:32:38;;;;;;;2.58;0.52;;;19.80;99.90;;;;;;20487025;28;20051;-48
2021/07/06 13:42:40;;;;;;;0.67;0.30;;;20.00;99.90;;;;;;20485987;28;20046;-49
2021/07/06 13:52:42;;;;;;;3.13;0.77;;;20.20;99.90;;;;;;20479871;28;20049;-49
2021/07/06 14:02:44;;;;;;;1.23;0.75;;;20.20;99.90;;;;;;20483123;28;20049;-49
2021/07/06 14:12:45;;;;;;;2.17;0.52;;;20.10;99.90;;;;;;20489187;28;20290;-48
2021/07/06 14:22:48;;;;;;;1.05;0.30;;;19.70;99.90;;;;;;20476292;28;20031;-48
2021/07/06 14:32:52;;;;;;;0.93;0.30;;;18.30;99.90;;;;;;20480326;28;20047;-49
2021/07/06 14:42:53;;;;;;;0.70;0.30;;;17.30;99.90;;;;;;20488797;28;20035;-48
2021/07/06 14:52:54;;;;;;;1.70;0.65;;;17.30;99.90;;;;;;20474030;28;20058;-49
2021/07/06 15:02:57;;;;;;;5.85;0.60;;;17.70;99.90;;;;;;20475947;28;20293;-48
2021/07/06 15:13:00;;;;;;;1.55;0.22;;;18.20;99.90;;;;;;20474025;28;20179;-48
2021/07/06 15:23:02;;;;;;;1.13;0.40;;;18.50;99.90;;;;;;20475375;28;20118;-50
2021/07/06 15:33:04;;;;;;;2.10;0.40;;;18.70;99.90;;;;;;20476490;28;20071;-48
2021/07/06 15:43:05;;;;;;;1.65;0.30;;;18.90;99.90;;;;;;20481625;28;20043;-48
2021/07/06 15:53:06;;;;;;;1.30;0.35;;;19.10;99.90;;;;;;20477059;28;20056;-48
2021/07/06 16:03:08;;;;;;;3.88;0.40;;;19.30;99.90;;;;;;20464633;28;20139;-48
2021/07/06 16:13:09;;;;;;;1.13;0.50;;;19.00;99.90;;;;;;20481751;28;20070;-48
2021/07/06 16:23:11;;;;;;;0.65;0.28;;;18.90;99.90;;;;;;20485743;28;20126;-48
2021/07/06 16:33:12;;;;;;;1.35;0.40;;;18.40;99.90;;;;;;20515739;28;20125;-48
2021/07/06 16:43:14;;;;;;;3.13;0.30;;;18.60;99.90;;;;;;20490133;28;20618;-48
2021/07/06 18:05:35;;;;;;;3.85;0.50;;;18.50;99.90;;;;;;20480205;28;20035;-48
2021/07/06 18:15:37;;;;;;;3.63;0.52;;;18.40;99.90;;;;;;20469855;28;20043;-48
2021/07/06 18:25:39;;;;;;;1.52;0.40;;;18.50;99.90;;;;;;20467380;28;20042;-48
2021/07/06 18:35:40;;;;;;;3.25;0.60;;;18.60;99.90;;;;;;20459864;28;20050;-48
2021/07/06 18:45:42;;;;;;;3.78;0.35;;;18.40;99.90;;;;;;20468741;28;20129;-51
2021/07/06 18:55:43;;;;;;;1.70;0.38;;;18.20;99.90;;;;;;20483813;28;20047;-49
2021/07/06 19:05:44;;;;;;;1.00;0.50;;;18.10;99.90;;;;;;20477438;28;20043;-49
2021/07/06 19:15:46;;;;;;;2.72;0.50;;;18.00;99.90;;;;;;20466752;28;20055;-49
2021/07/06 19:25:49;;;;;;;2.15;0.32;;;17.90;99.90;;;;;;20468953;28;20127;-49
2021/07/06 19:35:50;;;;;;;3.35;0.43;;;17.80;99.90;;;;;;20467277;28;20050;-48
2021/07/06 19:45:53;;;;;;;1.00;0.30;;;17.70;99.90;;;;;;20487692;28;20489;-49
2021/07/06 19:55:57;;;;;;;1.38;0.32;;;17.50;99.90;;;;;;20478049;28;20420;-50
2021/07/06 20:05:59;;;;;;;0.70;0.22;;;17.50;99.90;;;;;;20477259;28;20075;-51
2021/07/06 20:16:00;;;;;;;1.90;0.30;;;17.30;99.90;;;;;;20482402;28;20522;-50
2021/07/06 20:26:03;;;;;;;3.35;0.40;;;17.20;99.90;;;;;;20477160;28;20304;-50
2021/07/06 20:36:04;;;;;;;3.15;0.52;;;16.90;99.90;;;;;;20476973;28;20039;-51
2021/07/06 20:46:07;;;;;;;1.92;0.45;;;16.80;99.90;;;;;;20471242;28;20050;-50
2021/07/06 20:56:08;;;;;;;3.97;0.85;;;16.80;99.90;;;;;;20476908;28;20051;-51
2021/07/06 21:06:09;;;;;;;1.63;0.30;;;16.70;99.90;;;;;;20480114;28;20051;-50
2021/07/06 21:16:10;;;;;;;1.17;0.40;;;16.40;99.90;;;;;;20484278;28;20333;-50
2021/07/06 21:26:12;;;;;;;1.65;0.40;;;16.40;99.90;;;;;;20484630;28;20497;-50
2021/07/06 21:36:14;;;;;;;0.68;0.35;;;16.50;99.90;;;;;;20478206;28;20065;-50
2021/07/06 21:46:15;;;;;;;0.80;0.20;;;16.60;99.90;;;;;;20480238;28;20645;-50
2021/07/06 21:56:18;;;;;;;1.95;0.38;;;16.50;99.90;;;;;;20478137;28;20259;-49
2021/07/06 22:06:19;;;;;;;0.90;0.30;;;16.30;99.90;;;;;;20477382;28;20039;-51
2021/07/06 22:16:20;;;;;;;1.70;0.80;;;16.30;99.90;;;;;;20480016;28;20043;-50
2021/07/06 22:26:22;;;;;;;1.08;0.40;;;16.30;99.90;;;;;;20488268;28;20112;-50
2021/07/06 22:36:23;;;;;;;1.48;0.60;;;16.20;99.90;;;;;;20492175;28;20062;-50
2021/07/06 22:46:24;;;;;;;1.27;0.52;;;16.20;99.90;;;;;;20483997;28;20047;-49
2021/07/06 22:56:26;;;;;;;1.65;0.60;;;16.10;99.90;;;;;;20515111;28;20054;-50
2021/07/06 23:06:27;;;;;;;4.97;0.68;;;16.00;99.90;;;;;;20492119;28;20085;-50
2021/07/06 23:16:28;;;;;;;2.72;0.35;;;16.00;99.90;;;;;;20489454;28;20047;-49
2021/07/06 23:26:29;;;;;;;1.25;0.32;;;16.20;99.90;;;;;;20484012;28;20150;-48
2021/07/06 23:36:31;;;;;;;3.35;0.68;;;16.20;99.90;;;;;;20484415;28;20435;-50
2021/07/06 23:46:32;;;;;;;3.47;1.13;;;16.20;99.90;;;;;;20474992;28;20193;-49
2021/07/06 23:56:33;;;;;;;0.60;0.30;;;16.20;99.90;;;;;;20487050;28;20400;-49
